Time;durP1;ratioP1;P1;durP2;ratioP2;P2;SDS_P1;SDS_P2;PMS_P1;PMS_P2;Temp;Humidity;BMP_temperature;BMP_pressure;BME280_temperature;BME280_humidity;BME280_pressure;Samples;Min_cycle;Max_cycle;Signal;HPM_P1;HPM_P2
2022/10/10 00:02:11;;;;;;;1.02;1.00;;;20.10;60.60;;;;;;5063313;28;20244;-68
2022/10/10 00:04:37;;;;;;;1.15;1.05;;;20.10;60.60;;;;;;5063321;28;20051;-68
2022/10/10 00:07:03;;;;;;;0.90;0.90;;;20.10;60.50;;;;;;5063258;28;20021;-69
2022/10/10 00:09:29;;;;;;;1.05;1.00;;;20.10;60.60;;;;;;5063292;28;20043;-68
2022/10/10 00:11:55;;;;;;;1.30;1.20;;;20.10;60.60;;;;;;5063169;28;20356;-69
2022/10/10 00:14:20;;;;;;;0.80;0.80;;;20.10;60.60;;;;;;5063067;28;20333;-69
2022/10/10 00:16:46;;;;;;;1.00;1.00;;;20.10;61.30;;;;;;5063186;28;20021;-68
2022/10/10 00:19:12;;;;;;;0.88;0.80;;;20.10;60.60;;;;;;5063196;28;20036;-68
2022/10/10 00:21:38;;;;;;;0.80;0.80;;;20.10;60.70;;;;;;5063192;28;20021;-68
2022/10/10 00:24:03;;;;;;;0.73;0.73;;;20.10;60.60;;;;;;5063099;28;20091;-68
2022/10/10 00:26:29;;;;;;;0.90;0.90;;;20.10;60.60;;;;;;5063124;28;20031;-68
2022/10/10 00:28:55;;;;;;;1.02;1.00;;;20.10;60.60;;;;;;5063100;28;20024;-68
2022/10/10 00:31:21;;;;;;;0.93;0.93;;;20.00;60.60;;;;;;5063025;28;20247;-67
2022/10/10 00:33:47;;;;;;;1.23;1.08;;;20.00;60.60;;;;;;5062977;28;20385;-67
2022/10/10 00:36:13;;;;;;;0.70;0.70;;;20.10;60.70;;;;;;5063098;28;20346;-68
2022/10/10 00:38:40;;;;;;;0.82;0.77;;;20.00;60.60;;;;;;5063035;28;20013;-69
2022/10/10 00:41:06;;;;;;;1.00;1.00;;;20.00;60.60;;;;;;5062984;28;20076;-69
2022/10/10 00:43:33;;;;;;;0.90;0.90;;;20.00;60.60;;;;;;5062926;28;20121;-68
2022/10/10 00:45:59;;;;;;;1.00;0.90;;;20.10;60.70;;;;;;5062915;28;20032;-69
2022/10/10 00:48:35;;;;;;;0.88;0.85;;;20.00;60.60;;;;;;5062889;28;20080;-69
2022/10/10 00:51:13;;;;;;;0.80;0.80;;;20.00;60.60;;;;;;5062919;28;20017;-69
2022/10/10 00:53:55;;;;;;;0.80;0.80;;;20.00;60.60;;;;;;5062804;28;20215;-68
2022/10/10 00:56:24;;;;;;;1.00;1.00;;;20.00;60.60;;;;;;5065833;28;20024;-68
2022/10/10 00:58:53;;;;;;;1.10;1.00;;;20.00;60.60;;;;;;5066483;28;20178;-67
2022/10/10 01:01:18;;;;;;;;;;;20.00;60.60;;;;;;5066888;28;20017;-68
2022/10/10 01:03:44;;;;;;;1.27;1.02;;;20.00;60.60;;;;;;5066466;28;20007;-69
2022/10/10 01:06:10;;;;;;;0.90;0.90;;;20.00;60.60;;;;;;5066388;28;20029;-68
2022/10/10 01:08:36;;;;;;;0.88;0.82;;;20.00;60.50;;;;;;5066303;28;20024;-68
2022/10/10 01:11:21;;;;;;;0.82;0.82;;;20.00;60.60;;;;;;5066322;28;20020;-68
2022/10/10 01:14:38;;;;;;;0.93;0.93;;;20.00;60.60;;;;;;5066119;28;20021;-68
2022/10/10 01:17:18;;;;;;;1.10;1.00;;;20.00;60.60;;;;;;5044335;28;20057;-67
2022/10/10 01:20:37;;;;;;;0.95;0.95;;;20.00;60.60;;;;;;5066187;28;20012;-67
2022/10/10 01:23:34;;;;;;;0.75;0.75;;;20.00;60.70;;;;;;5044244;28;20127;-68
2022/10/10 01:26:23;;;;;;;1.02;0.98;;;20.00;60.60;;;;;;5066074;28;20021;-68
2022/10/10 01:29:20;;;;;;;0.80;0.80;;;20.00;60.60;;;;;;5065973;28;20263;-67
2022/10/10 01:31:50;;;;;;;0.82;0.82;;;20.00;60.60;;;;;;5065828;28;20016;-68
2022/10/10 01:34:38;;;;;;;0.90;0.90;;;20.00;60.60;;;;;;5065794;28;20364;-68
2022/10/10 01:37:15;;;;;;;1.20;1.10;;;20.00;60.60;;;;;;5065824;28;20088;-68
2022/10/10 01:39:55;;;;;;;0.93;0.82;;;19.90;60.60;;;;;;5065765;28;20027;-69
2022/10/10 01:42:40;;;;;;;1.27;0.93;;;19.90;60.50;;;;;;5065731;28;20024;-69
2022/10/10 01:45:07;;;;;;;0.90;0.90;;;19.90;60.60;;;;;;5065498;28;20025;-69
2022/10/10 01:47:32;;;;;;;1.42;0.80;;;19.90;60.50;;;;;;5065582;28;20032;-69
2022/10/10 01:50:04;;;;;;;1.00;0.90;;;19.90;60.50;;;;;;5065551;28;20016;-69
2022/10/10 01:52:44;;;;;;;0.90;0.90;;;19.90;60.60;;;;;;5065372;28;20024;-68
2022/10/10 01:55:28;;;;;;;1.10;0.93;;;19.90;60.50;;;;;;5065483;28;20024;-68
2022/10/10 01:57:59;;;;;;;0.80;0.80;;;19.90;60.60;;;;;;5065399;28;20017;-67
2022/10/10 02:00:25;;;;;;;1.25;1.08;;;19.90;60.60;;;;;;5065368;28;20020;-68
2022/10/10 02:02:56;;;;;;;0.80;0.80;;;19.90;60.50;;;;;;5065341;28;20216;-68
2022/10/10 02:05:31;;;;;;;0.90;0.90;;;19.90;60.50;;;;;;5065299;28;20251;-68
2022/10/10 02:08:13;;;;;;;1.10;0.90;;;19.90;60.50;;;;;;5064285;28;20021;-69
2022/10/10 02:10:47;;;;;;;1.20;1.10;;;19.90;60.50;;;;;;5064331;28;20236;-68
2022/10/10 02:13:15;;;;;;;0.90;0.90;;;19.90;60.50;;;;;;5063918;28;20021;-68
2022/10/10 02:15:45;;;;;;;1.20;1.10;;;19.90;60.50;;;;;;5064945;28;20276;-68
2022/10/10 02:18:13;;;;;;;0.80;0.80;;;19.90;60.50;;;;;;5065066;28;20044;-67
2022/10/10 02:20:42;;;;;;;0.90;0.90;;;19.90;60.50;;;;;;5064968;28;20070;-68
2022/10/10 02:23:11;;;;;;;0.75;0.75;;;19.90;60.50;;;;;;5065159;28;20048;-69
2022/10/10 02:25:40;;;;;;;0.95;0.85;;;19.90;60.50;;;;;;5064855;28;20017;-68
2022/10/10 02:28:09;;;;;;;1.05;1.00;;;19.90;60.50;;;;;;5064843;28;20021;-68
2022/10/10 02:30:39;;;;;;;1.17;1.00;;;19.90;60.50;;;;;;5064775;28;20208;-68
2022/10/10 02:33:06;;;;;;;0.85;0.85;;;19.90;60.50;;;;;;5064620;28;20021;-69
2022/10/10 02:35:39;;;;;;;0.70;0.70;;;19.90;60.50;;;;;;5064699;28;20013;-68
2022/10/10 02:38:08;;;;;;;0.95;0.95;;;19.90;60.50;;;;;;5064679;28;20044;-67
2022/10/10 02:40:35;;;;;;;1.00;0.90;;;19.90;60.50;;;;;;5064597;28;20331;-69
2022/10/10 02:43:06;;;;;;;0.93;0.90;;;19.90;60.40;;;;;;5064591;28;20032;-68
2022/10/10 02:45:32;;;;;;;1.10;1.00;;;19.90;60.40;;;;;;5064533;28;20262;-68
2022/10/10 02:47:59;;;;;;;1.00;0.90;;;19.90;60.40;;;;;;5064416;28;20017;-69
2022/10/10 02:50:27;;;;;;;0.82;0.82;;;19.90;60.50;;;;;;5064439;28;20340;-69
2022/10/10 02:52:53;;;;;;;1.00;1.00;;;19.90;60.40;;;;;;5064263;28;20082;-68
2022/10/10 02:55:19;;;;;;;0.77;0.70;;;19.90;60.40;;;;;;5064309;28;20336;-69
2022/10/10 02:57:45;;;;;;;0.85;0.85;;;19.90;60.50;;;;;;5064247;28;20088;-69
2022/10/10 03:00:11;;;;;;;0.63;0.63;;;19.80;60.50;;;;;;5064255;28;20027;-69
2022/10/10 03:02:37;;;;;;;1.55;1.10;;;19.80;60.40;;;;;;5064097;28;20017;-68
2022/10/10 03:05:03;;;;;;;0.80;0.80;;;19.80;60.40;;;;;;5064125;28;20031;-68
2022/10/10 03:07:29;;;;;;;0.80;0.80;;;19.90;60.50;;;;;;5064065;28;20023;-69
2022/10/10 03:09:54;;;;;;;0.75;0.70;;;19.90;60.40;;;;;;5064070;28;20025;-69
2022/10/10 03:12:20;;;;;;;0.82;0.82;;;19.80;60.40;;;;;;5063901;28;20025;-68
2022/10/10 03:14:46;;;;;;;1.13;0.88;;;19.80;60.30;;;;;;5063770;28;20055;-68
2022/10/10 03:17:12;;;;;;;1.00;1.00;;;19.80;60.30;;;;;;5062762;28;20100;-68
2022/10/10 03:19:37;;;;;;;1.60;0.90;;;19.80;60.50;;;;;;5063653;28;20053;-67
2022/10/10 03:22:03;;;;;;;0.75;0.75;;;19.80;60.40;;;;;;5063832;28;20075;-67
2022/10/10 03:24:29;;;;;;;0.90;0.82;;;19.80;60.30;;;;;;5063756;28;20065;-68
2022/10/10 03:26:54;;;;;;;1.75;1.05;;;19.80;60.40;;;;;;5063782;28;20017;-68
2022/10/10 03:29:20;;;;;;;0.80;0.80;;;19.80;60.30;;;;;;5063695;28;20209;-68
2022/10/10 03:31:46;;;;;;;0.90;0.80;;;19.80;60.30;;;;;;5063705;28;20017;-69
2022/10/10 03:34:11;;;;;;;0.93;0.93;;;19.80;60.30;;;;;;5063596;28;20214;-68
2022/10/10 03:36:37;;;;;;;0.70;0.68;;;19.80;60.30;;;;;;5063620;28;20359;-68
2022/10/10 03:39:03;;;;;;;1.20;1.10;;;19.80;60.30;;;;;;5063570;28;20017;-68
2022/10/10 03:41:29;;;;;;;1.25;0.70;;;19.80;60.40;;;;;;5063572;28;20009;-68
2022/10/10 03:43:55;;;;;;;0.70;0.70;;;19.70;60.30;;;;;;5063521;28;20062;-67
2022/10/10 03:46:21;;;;;;;1.15;1.05;;;19.80;60.40;;;;;;5063765;28;20020;-69
2022/10/10 03:48:47;;;;;;;0.80;0.80;;;19.80;60.40;;;;;;5063484;28;20025;-68
2022/10/10 03:51:13;;;;;;;0.73;0.70;;;19.80;60.30;;;;;;5063706;28;20047;-69
2022/10/10 03:53:38;;;;;;;1.10;1.00;;;19.80;60.30;;;;;;5063344;28;20072;-70
2022/10/10 03:56:04;;;;;;;1.02;0.93;;;19.80;60.40;;;;;;5063448;28;20020;-69
2022/10/10 03:58:30;;;;;;;0.88;0.88;;;19.80;60.30;;;;;;5063419;28;20309;-68
2022/10/10 04:00:59;;;;;;;1.23;1.13;;;19.70;60.20;;;;;;5063364;28;20028;-69
2022/10/10 04:03:25;;;;;;;;;;;19.70;60.30;;;;;;5063803;28;20335;-68
2022/10/10 04:05:51;;;;;;;1.60;1.15;;;19.80;60.30;;;;;;5063348;28;19943;-68
2022/10/10 04:08:17;;;;;;;0.85;0.82;;;19.70;60.30;;;;;;5063343;28;20017;-68
2022/10/10 04:10:46;;;;;;;0.93;0.90;;;19.70;60.20;;;;;;5063283;28;20150;-68
2022/10/10 04:13:12;;;;;;;0.82;0.77;;;19.80;60.30;;;;;;5063173;28;20135;-68
2022/10/10 04:15:38;;;;;;;0.80;0.80;;;19.80;60.30;;;;;;5063023;28;20068;-68
2022/10/10 04:18:04;;;;;;;0.82;0.82;;;19.70;60.30;;;;;;5063192;28;20182;-68
2022/10/10 04:20:29;;;;;;;0.85;0.85;;;19.70;60.30;;;;;;5063178;28;20021;-67
2022/10/10 04:22:55;;;;;;;1.00;0.82;;;19.80;60.40;;;;;;5063135;28;20021;-67
2022/10/10 04:25:21;;;;;;;0.93;0.93;;;19.70;60.30;;;;;;5063139;28;20055;-67
2022/10/10 04:27:47;;;;;;;0.80;0.80;;;19.70;60.30;;;;;;5061962;28;20023;-67
2022/10/10 04:30:12;;;;;;;2.05;1.02;;;19.70;61.00;;;;;;5064382;28;20025;-68
2022/10/10 04:32:38;;;;;;;1.25;1.02;;;19.70;60.30;;;;;;5066930;28;20017;-68
2022/10/10 04:35:05;;;;;;;0.80;0.80;;;19.70;60.30;;;;;;5066984;28;20076;-67
2022/10/10 04:37:30;;;;;;;0.65;0.65;;;19.70;60.20;;;;;;5066969;28;20021;-67
2022/10/10 04:39:56;;;;;;;0.70;0.70;;;19.70;60.30;;;;;;5066893;28;20036;-67
2022/10/10 04:42:22;;;;;;;0.73;0.73;;;19.70;60.30;;;;;;5065679;28;20020;-68
2022/10/10 04:44:48;;;;;;;0.90;0.80;;;19.70;60.30;;;;;;5066776;28;20030;-68
2022/10/10 04:47:13;;;;;;;1.05;1.02;;;19.70;60.30;;;;;;5066781;28;20186;-68
2022/10/10 04:49:40;;;;;;;0.88;0.75;;;19.70;60.40;;;;;;5066723;28;20080;-67
2022/10/10 04:52:08;;;;;;;0.85;0.77;;;19.70;60.30;;;;;;5066594;28;20017;-68
2022/10/10 04:54:34;;;;;;;0.70;0.70;;;19.70;60.30;;;;;;5066602;28;20017;-68
2022/10/10 04:57:00;;;;;;;0.95;0.90;;;19.70;60.30;;;;;;5066561;28;20012;-68
2022/10/10 04:59:25;;;;;;;1.08;0.98;;;19.70;60.30;;;;;;5066510;28;20043;-68
2022/10/10 05:01:51;;;;;;;1.20;0.90;;;19.70;60.20;;;;;;5066470;28;20013;-68
2022/10/10 05:04:17;;;;;;;1.15;1.10;;;19.70;60.40;;;;;;5066425;28;20043;-68
2022/10/10 05:06:42;;;;;;;1.10;0.80;;;19.70;60.30;;;;;;5066399;28;20017;-69
2022/10/10 05:09:08;;;;;;;1.05;0.95;;;19.60;60.30;;;;;;5066344;28;20076;-68
2022/10/10 05:11:34;;;;;;;0.70;0.70;;;19.70;60.30;;;;;;5066311;28;20262;-68
2022/10/10 05:13:59;;;;;;;1.00;0.90;;;19.70;60.30;;;;;;5066030;28;20021;-68
2022/10/10 05:16:25;;;;;;;0.75;0.75;;;19.70;60.20;;;;;;5066160;28;20051;-68
2022/10/10 05:18:51;;;;;;;1.10;1.00;;;19.70;60.40;;;;;;5066130;28;20019;-69
2022/10/10 05:21:17;;;;;;;1.17;1.08;;;19.70;60.30;;;;;;5066104;28;20059;-69
2022/10/10 05:23:43;;;;;;;1.02;0.93;;;19.70;60.40;;;;;;5066036;28;20021;-68
2022/10/10 05:26:09;;;;;;;1.10;1.05;;;19.70;60.30;;;;;;5066029;28;20031;-69
2022/10/10 05:28:35;;;;;;;0.98;0.98;;;19.70;60.30;;;;;;5066000;28;20422;-68
2022/10/10 05:31:03;;;;;;;1.30;1.20;;;19.70;60.40;;;;;;5065968;28;20079;-68
2022/10/10 05:33:29;;;;;;;1.08;0.98;;;19.60;60.40;;;;;;5065833;28;20017;-68
2022/10/10 05:36:06;;;;;;;0.85;0.85;;;19.60;60.40;;;;;;5065887;28;20237;-68
2022/10/10 05:38:33;;;;;;;1.80;1.02;;;19.60;60.40;;;;;;5065850;28;20017;-69
2022/10/10 05:40:59;;;;;;;0.82;0.70;;;19.60;60.30;;;;;;5065699;28;20067;-69
2022/10/10 05:43:25;;;;;;;1.10;0.88;;;19.70;60.40;;;;;;5065701;28;20021;-69
2022/10/10 05:45:52;;;;;;;0.88;0.88;;;19.70;60.30;;;;;;5065707;28;20028;-69
2022/10/10 05:48:18;;;;;;;0.80;0.80;;;19.60;60.30;;;;;;5064477;28;20021;-69
2022/10/10 05:50:50;;;;;;;0.98;0.85;;;19.70;60.40;;;;;;5065587;28;20027;-69
2022/10/10 05:53:16;;;;;;;0.73;0.73;;;19.60;60.30;;;;;;5065428;28;20016;-68
2022/10/10 05:55:45;;;;;;;0.82;0.82;;;19.60;60.30;;;;;;5065497;28;20013;-68
2022/10/10 05:58:12;;;;;;;;;;;19.60;60.90;;;;;;5065888;28;20223;-68
2022/10/10 06:00:42;;;;;;;0.65;0.65;;;19.70;60.30;;;;;;5065387;28;19908;-68
2022/10/10 06:03:12;;;;;;;1.33;0.98;;;19.70;60.40;;;;;;5065420;28;20024;-68
2022/10/10 06:05:39;;;;;;;0.73;0.73;;;19.70;60.30;;;;;;5065550;28;20024;-69
2022/10/10 06:08:05;;;;;;;0.65;0.57;;;19.60;60.20;;;;;;5065240;28;20266;-68
2022/10/10 06:10:36;;;;;;;0.80;0.80;;;19.70;60.30;;;;;;5065237;28;20024;-68
2022/10/10 06:13:02;;;;;;;0.85;0.85;;;19.60;60.30;;;;;;5065079;28;20385;-68
2022/10/10 06:15:28;;;;;;;0.90;0.90;;;19.60;60.40;;;;;;5064924;28;20041;-68
2022/10/10 06:17:54;;;;;;;0.90;0.75;;;19.70;60.40;;;;;;5065086;28;20016;-69
2022/10/10 06:20:19;;;;;;;0.80;0.75;;;19.70;60.30;;;;;;5065013;28;20076;-68
2022/10/10 06:22:45;;;;;;;0.63;0.63;;;19.60;60.20;;;;;;5064946;28;20021;-68
2022/10/10 06:25:11;;;;;;;0.70;0.70;;;19.60;60.20;;;;;;5064938;28;20314;-68
2022/10/10 06:27:36;;;;;;;0.73;0.70;;;19.70;60.30;;;;;;5064862;28;20025;-69
2022/10/10 06:30:03;;;;;;;0.93;0.85;;;19.60;60.20;;;;;;5064844;28;20097;-68
2022/10/10 06:32:29;;;;;;;0.75;0.75;;;19.60;60.30;;;;;;5064680;28;20131;-68
2022/10/10 06:34:54;;;;;;;0.70;0.70;;;19.70;60.20;;;;;;5064748;28;20080;-68
2022/10/10 06:37:20;;;;;;;0.80;0.80;;;19.60;60.20;;;;;;5064698;28;20348;-70
2022/10/10 06:39:46;;;;;;;1.08;0.98;;;19.70;60.20;;;;;;5064650;28;20080;-68
2022/10/10 06:42:11;;;;;;;1.70;1.10;;;19.70;60.20;;;;;;5064586;28;20435;-68
2022/10/10 06:44:37;;;;;;;0.75;0.75;;;19.70;60.20;;;;;;5064552;28;20082;-67
2022/10/10 06:47:03;;;;;;;0.75;0.75;;;19.70;60.20;;;;;;5064526;28;20021;-67
2022/10/10 06:49:29;;;;;;;0.65;0.65;;;19.70;60.10;;;;;;5064475;28;20013;-69
2022/10/10 06:51:54;;;;;;;0.90;0.90;;;19.70;60.10;;;;;;5064310;28;20313;-68
2022/10/10 06:54:20;;;;;;;0.80;0.80;;;19.70;60.00;;;;;;5063884;28;20023;-68
2022/10/10 06:56:46;;;;;;;1.00;0.70;;;19.70;60.00;;;;;;5064272;28;20017;-68
2022/10/10 06:59:12;;;;;;;1.05;1.00;;;19.70;60.10;;;;;;5064270;28;20071;-68
2022/10/10 07:01:37;;;;;;;0.70;0.70;;;19.70;60.10;;;;;;5064194;28;20017;-68
2022/10/10 07:04:04;;;;;;;0.85;0.85;;;19.70;60.00;;;;;;5064127;28;20037;-68
2022/10/10 07:06:30;;;;;;;0.77;0.70;;;19.70;60.00;;;;;;5064146;28;20027;-68
2022/10/10 07:08:57;;;;;;;1.02;1.00;;;19.70;59.90;;;;;;5064104;28;20051;-68
2022/10/10 07:11:24;;;;;;;1.10;0.90;;;19.80;60.10;;;;;;5064089;28;20021;-68
2022/10/10 07:13:52;;;;;;;0.85;0.85;;;19.80;60.00;;;;;;5063915;28;20055;-67
2022/10/10 07:16:18;;;;;;;0.63;0.63;;;19.70;60.00;;;;;;5063767;28;20040;-68
2022/10/10 07:18:44;;;;;;;1.00;0.90;;;19.70;60.00;;;;;;5062747;28;20067;-67
2022/10/10 07:21:09;;;;;;;1.10;1.00;;;19.70;59.90;;;;;;5063880;28;20017;-67
2022/10/10 07:23:36;;;;;;;0.70;0.70;;;19.80;60.00;;;;;;5063842;28;20027;-68
2022/10/10 07:26:09;;;;;;;1.00;0.90;;;19.80;59.90;;;;;;5063790;28;20017;-68
2022/10/10 07:28:36;;;;;;;0.73;0.73;;;19.80;59.90;;;;;;5063824;28;20017;-67
2022/10/10 07:31:04;;;;;;;0.75;0.75;;;19.80;59.90;;;;;;5063752;28;20025;-68
2022/10/10 07:33:35;;;;;;;1.00;0.80;;;19.80;59.90;;;;;;5063642;28;20027;-68
2022/10/10 07:36:01;;;;;;;0.80;0.77;;;19.80;59.90;;;;;;5063730;28;20135;-68
2022/10/10 07:38:26;;;;;;;1.05;0.93;;;19.80;59.80;;;;;;5063672;28;20025;-68
2022/10/10 07:40:52;;;;;;;1.25;0.93;;;19.80;59.70;;;;;;5063603;28;20017;-68
2022/10/10 07:43:18;;;;;;;1.00;0.90;;;19.80;59.80;;;;;;5063584;28;20025;-68
2022/10/10 07:45:44;;;;;;;0.90;0.90;;;19.80;59.90;;;;;;5063525;28;20217;-69
2022/10/10 07:48:10;;;;;;;1.20;1.00;;;19.80;60.00;;;;;;5063523;28;20021;-69
2022/10/10 07:50:40;;;;;;;0.70;0.70;;;19.80;59.90;;;;;;5062384;28;20024;-68
2022/10/10 07:53:07;;;;;;;1.38;0.60;;;19.90;59.90;;;;;;5063473;28;20059;-69
2022/10/10 07:55:33;;;;;;;0.90;0.90;;;19.90;59.80;;;;;;5063458;28;20309;-69
2022/10/10 07:58:02;;;;;;;0.82;0.80;;;19.90;59.80;;;;;;5063406;28;20127;-69
2022/10/10 08:00:28;;;;;;;0.75;0.75;;;19.90;59.80;;;;;;5063656;28;20356;-69
2022/10/10 08:02:54;;;;;;;1.13;0.77;;;19.80;59.80;;;;;;5063368;28;20088;-69
2022/10/10 08:05:20;;;;;;;0.85;0.85;;;19.80;59.90;;;;;;5064999;28;20082;-68
2022/10/10 08:07:46;;;;;;;0.88;0.80;;;19.80;60.00;;;;;;5067563;28;20025;-68
2022/10/10 08:10:12;;;;;;;1.00;0.90;;;19.80;60.00;;;;;;5067471;28;20021;-68
2022/10/10 08:12:38;;;;;;;1.08;0.82;;;19.90;60.00;;;;;;5067361;28;20080;-68
2022/10/10 08:15:05;;;;;;;0.70;0.70;;;19.90;60.10;;;;;;5067184;28;20079;-67
2022/10/10 08:17:31;;;;;;;0.60;0.60;;;19.80;60.00;;;;;;5067352;28;20021;-69
2022/10/10 08:19:56;;;;;;;0.80;0.80;;;19.90;60.20;;;;;;5067304;28;20017;-68
2022/10/10 08:22:22;;;;;;;0.77;0.77;;;19.90;60.20;;;;;;5067247;28;20088;-69
2022/10/10 08:24:48;;;;;;;0.75;0.75;;;19.80;60.10;;;;;;5067205;28;20212;-68
2022/10/10 08:27:16;;;;;;;0.70;0.70;;;19.80;60.10;;;;;;5067168;28;20059;-69
2022/10/10 08:29:42;;;;;;;1.10;0.80;;;19.80;60.20;;;;;;5067136;28;20028;-68
2022/10/10 08:32:08;;;;;;;0.77;0.77;;;19.90;60.20;;;;;;5066987;28;20024;-69
2022/10/10 08:34:34;;;;;;;0.77;0.77;;;19.90;60.20;;;;;;5066986;28;20024;-67
2022/10/10 08:36:59;;;;;;;0.80;0.80;;;19.90;60.20;;;;;;5066966;28;20066;-68
2022/10/10 08:39:25;;;;;;;0.70;0.70;;;19.80;60.20;;;;;;5066927;28;20021;-67
2022/10/10 08:42:00;;;;;;;0.90;0.90;;;19.90;60.20;;;;;;5066931;28;20059;-69
2022/10/10 08:44:49;;;;;;;0.80;0.80;;;19.90;60.20;;;;;;5066809;28;20066;-69
2022/10/10 08:47:25;;;;;;;0.88;0.88;;;19.90;60.20;;;;;;5066838;28;20027;-69
2022/10/10 08:50:01;;;;;;;1.52;1.23;;;19.90;60.20;;;;;;5066783;28;20028;-68
2022/10/10 08:52:57;;;;;;;0.98;0.80;;;19.80;60.20;;;;;;5066632;28;20088;-68
2022/10/10 08:55:32;;;;;;;0.73;0.73;;;19.90;60.30;;;;;;5066647;28;20216;-68
2022/10/10 08:58:11;;;;;;;0.98;0.80;;;19.90;60.20;;;;;;5066589;28;20013;-67
2022/10/10 09:00:47;;;;;;;1.60;0.90;;;19.90;60.30;;;;;;5066550;28;20016;-69
2022/10/10 09:03:31;;;;;;;0.85;0.68;;;19.90;60.30;;;;;;5066563;28;20209;-69
2022/10/10 09:06:00;;;;;;;0.80;0.80;;;19.90;60.30;;;;;;5066451;28;20051;-68
2022/10/10 09:08:56;;;;;;;1.00;1.00;;;19.90;60.30;;;;;;5066391;28;20087;-69
2022/10/10 09:11:27;;;;;;;1.75;0.90;;;19.90;60.30;;;;;;5063253;28;20037;-68
2022/10/10 09:14:17;;;;;;;0.60;0.60;;;19.90;60.30;;;;;;5066227;28;20024;-68
2022/10/10 09:16:49;;;;;;;0.55;0.55;;;19.90;60.30;;;;;;5065857;28;20052;-67
2022/10/10 09:19:35;;;;;;;0.70;0.68;;;19.90;60.30;;;;;;5066237;28;20044;-68
2022/10/10 09:22:08;;;;;;;0.80;0.80;;;19.90;60.20;;;;;;5066189;28;20021;-67
2022/10/10 09:24:37;;;;;;;0.77;0.77;;;19.90;60.20;;;;;;5066136;28;20020;-67
2022/10/10 09:27:06;;;;;;;0.60;0.60;;;19.90;60.20;;;;;;5066043;28;20190;-67
2022/10/10 09:29:48;;;;;;;0.55;0.55;;;19.90;60.20;;;;;;5066038;28;20016;-67
2022/10/10 09:32:18;;;;;;;0.70;0.70;;;19.90;60.30;;;;;;5065966;28;20312;-68
2022/10/10 09:34:52;;;;;;;0.80;0.80;;;19.90;60.20;;;;;;5065971;28;20310;-69
2022/10/10 09:37:22;;;;;;;1.15;1.05;;;19.90;60.20;;;;;;5065911;28;20021;-68
2022/10/10 09:40:03;;;;;;;0.77;0.77;;;20.00;60.20;;;;;;5065841;28;20009;-69
2022/10/10 09:42:38;;;;;;;0.80;0.80;;;20.00;60.30;;;;;;5065832;28;20024;-68
2022/10/10 09:45:42;;;;;;;0.77;0.75;;;20.00;60.30;;;;;;5065735;28;20212;-69
2022/10/10 09:48:09;;;;;;;0.82;0.77;;;20.00;60.20;;;;;;5043807;28;20025;-68
2022/10/10 09:50:37;;;;;;;1.10;1.00;;;20.00;60.30;;;;;;5061623;28;20036;-69
2022/10/10 09:53:03;;;;;;;0.70;0.68;;;20.00;60.20;;;;;;5065506;28;20032;-68
2022/10/10 09:55:33;;;;;;;0.65;0.65;;;20.00;60.30;;;;;;5065572;28;20020;-68
2022/10/10 09:58:28;;;;;;;0.68;0.68;;;20.00;60.30;;;;;;5065536;28;20015;-68
2022/10/10 10:01:08;;;;;;;0.85;0.82;;;20.00;60.20;;;;;;5065415;28;20017;-68
2022/10/10 10:03:34;;;;;;;0.80;0.80;;;20.00;60.20;;;;;;5065427;28;20213;-68
2022/10/10 10:06:00;;;;;;;0.98;0.90;;;20.00;60.20;;;;;;5065332;28;20017;-68
2022/10/10 10:08:32;;;;;;;1.05;0.80;;;20.00;60.20;;;;;;5065270;28;20083;-69
2022/10/10 10:10:59;;;;;;;0.90;0.90;;;20.00;60.30;;;;;;5065242;28;20017;-67
2022/10/10 10:13:30;;;;;;;0.90;0.70;;;20.00;60.20;;;;;;5065137;28;20216;-68
2022/10/10 10:16:11;;;;;;;0.85;0.70;;;20.10;60.90;;;;;;5064987;28;20268;-67
2022/10/10 10:18:45;;;;;;;0.70;0.70;;;20.10;60.20;;;;;;5065200;28;20017;-68
2022/10/10 10:21:22;;;;;;;1.00;0.90;;;20.10;60.20;;;;;;5065085;28;20013;-69
2022/10/10 10:24:02;;;;;;;0.70;0.70;;;20.00;60.30;;;;;;5065028;28;20305;-67
2022/10/10 10:26:42;;;;;;;1.60;1.05;;;20.10;60.30;;;;;;5064944;28;20021;-67
2022/10/10 10:29:32;;;;;;;0.60;0.60;;;20.10;60.30;;;;;;5064125;28;20021;-69
2022/10/10 10:32:31;;;;;;;1.02;0.93;;;20.10;60.20;;;;;;5064910;28;20084;-68
2022/10/10 10:35:15;;;;;;;0.90;0.90;;;20.10;60.30;;;;;;5064815;28;20024;-69
2022/10/10 10:38:08;;;;;;;0.80;0.80;;;20.10;60.30;;;;;;5064754;28;20072;-68
2022/10/10 10:40:53;;;;;;;0.80;0.80;;;20.10;60.30;;;;;;5064670;28;20066;-68
2022/10/10 10:43:52;;;;;;;0.77;0.77;;;20.10;60.20;;;;;;5064670;28;20045;-68
2022/10/10 10:46:30;;;;;;;0.70;0.70;;;20.10;60.20;;;;;;5064566;28;20017;-68
2022/10/10 10:48:56;;;;;;;2.15;1.00;;;20.10;60.20;;;;;;5064518;28;20028;-67
2022/10/10 10:51:40;;;;;;;0.77;0.70;;;20.10;60.30;;;;;;5064453;28;20209;-67
2022/10/10 10:54:36;;;;;;;0.80;0.80;;;20.10;60.20;;;;;;5064393;28;20025;-68
2022/10/10 10:57:26;;;;;;;0.75;0.75;;;20.10;60.20;;;;;;5064345;28;20083;-68
2022/10/10 11:00:09;;;;;;;0.80;0.75;;;20.10;60.20;;;;;;5064354;28;20331;-68
2022/10/10 11:02:53;;;;;;;0.77;0.70;;;20.20;60.20;;;;;;5064290;28;20021;-67
2022/10/10 11:05:42;;;;;;;0.77;0.75;;;20.20;60.30;;;;;;5064260;28;20217;-67
2022/10/10 11:08:14;;;;;;;1.02;0.85;;;20.20;60.30;;;;;;5053820;28;20329;-69
2022/10/10 11:10:45;;;;;;;0.80;0.77;;;20.20;60.20;;;;;;5063194;28;20061;-69
2022/10/10 11:13:31;;;;;;;0.70;0.70;;;20.20;60.20;;;;;;5064064;28;20020;-69
2022/10/10 11:16:27;;;;;;;0.80;0.80;;;20.20;60.20;;;;;;5063876;28;20049;-67
2022/10/10 11:19:24;;;;;;;0.70;0.70;;;20.20;60.10;;;;;;5061991;28;20071;-67
2022/10/10 11:21:59;;;;;;;0.82;0.82;;;20.20;60.20;;;;;;5063968;28;20247;-68
2022/10/10 11:24:46;;;;;;;0.70;0.70;;;20.20;60.20;;;;;;5063958;28;20021;-68
2022/10/10 11:27:19;;;;;;;0.57;0.57;;;20.30;60.10;;;;;;5063882;28;20021;-68
2022/10/10 11:29:55;;;;;;;0.88;0.88;;;20.30;60.10;;;;;;5063830;28;20250;-67
2022/10/10 11:32:29;;;;;;;0.73;0.60;;;20.30;60.10;;;;;;5063758;28;20088;-68
2022/10/10 11:35:09;;;;;;;0.68;0.68;;;20.30;60.20;;;;;;5063776;28;20033;-68
2022/10/10 11:37:41;;;;;;;0.60;0.50;;;20.30;60.20;;;;;;5063721;28;20020;-68
2022/10/10 11:40:29;;;;;;;0.82;0.82;;;20.30;60.30;;;;;;5063550;28;20013;-68
2022/10/10 11:43:00;;;;;;;1.08;1.00;;;20.30;60.10;;;;;;5063666;28;20017;-68
2022/10/10 11:45:38;;;;;;;0.63;0.63;;;20.30;60.10;;;;;;5063605;28;20028;-67
2022/10/10 11:48:36;;;;;;;0.70;0.63;;;20.30;60.10;;;;;;5063585;28;20239;-68
2022/10/10 11:51:10;;;;;;;0.65;0.65;;;20.30;60.10;;;;;;5063509;28;20071;-67
2022/10/10 11:53:41;;;;;;;0.70;0.70;;;20.40;60.10;;;;;;5063464;28;20258;-69
2022/10/10 11:56:29;;;;;;;0.73;0.70;;;20.40;60.00;;;;;;5063456;28;20039;-68
2022/10/10 11:59:12;;;;;;;1.13;1.02;;;20.40;60.00;;;;;;5063444;28;20017;-67
2022/10/10 12:01:45;;;;;;;0.90;0.80;;;20.40;60.00;;;;;;5063029;28;20017;-68
2022/10/10 12:04:11;;;;;;;0.70;0.70;;;20.40;60.00;;;;;;5062252;28;20021;-68
2022/10/10 12:06:51;;;;;;;0.77;0.75;;;20.40;60.00;;;;;;5062179;28;20028;-68
2022/10/10 12:09:19;;;;;;;0.70;0.70;;;20.50;60.00;;;;;;5063361;28;20100;-67
2022/10/10 12:11:53;;;;;;;0.80;0.80;;;20.50;60.00;;;;;;5063301;28;20021;-68
2022/10/10 12:14:21;;;;;;;0.93;0.90;;;20.50;59.90;;;;;;5063026;28;20025;-67
2022/10/10 12:16:47;;;;;;;1.65;0.70;;;20.50;60.00;;;;;;5063321;28;20367;-68
2022/10/10 12:19:22;;;;;;;0.90;0.90;;;20.50;60.00;;;;;;5063200;28;20027;-68
2022/10/10 12:21:55;;;;;;;0.60;0.60;;;20.50;59.90;;;;;;5063232;28;20024;-68
2022/10/10 12:24:23;;;;;;;0.60;0.60;;;20.50;60.00;;;;;;5063170;28;20016;-67
2022/10/10 12:26:51;;;;;;;0.90;0.70;;;20.50;60.00;;;;;;5063117;28;20063;-68
2022/10/10 12:29:42;;;;;;;0.80;0.80;;;20.50;60.00;;;;;;5063108;28;20021;-67
2022/10/10 12:32:14;;;;;;;0.68;0.68;;;20.50;59.90;;;;;;5063264;28;20024;-67
2022/10/10 12:34:55;;;;;;;0.85;0.85;;;20.50;59.90;;;;;;5063055;28;20017;-67
2022/10/10 12:37:25;;;;;;;0.70;0.70;;;20.50;59.90;;;;;;5063081;28;20013;-67
2022/10/10 12:40:05;;;;;;;0.63;0.63;;;20.60;59.90;;;;;;5063034;28;20017;-68
2022/10/10 12:42:38;;;;;;;0.70;0.70;;;20.60;59.80;;;;;;5063065;28;20386;-66
2022/10/10 12:45:29;;;;;;;0.50;0.50;;;20.60;59.80;;;;;;5062994;28;20029;-68
2022/10/10 12:48:20;;;;;;;0.90;0.88;;;20.60;59.70;;;;;;5062887;28;20024;-68
2022/10/10 12:50:59;;;;;;;0.70;0.70;;;20.70;59.70;;;;;;5063479;28;20013;-69
2022/10/10 12:53:27;;;;;;;0.68;0.68;;;20.70;59.50;;;;;;5066615;28;20213;-67
2022/10/10 12:55:56;;;;;;;0.98;0.98;;;20.70;59.50;;;;;;5066644;28;20017;-67
2022/10/10 12:58:30;;;;;;;0.70;0.70;;;20.80;59.50;;;;;;5066659;28;20142;-68
2022/10/10 13:00:59;;;;;;;0.60;0.60;;;20.80;59.30;;;;;;5066596;28;20021;-68
2022/10/10 13:03:36;;;;;;;1.00;0.88;;;20.80;59.80;;;;;;5066498;28;20023;-68
2022/10/10 13:06:23;;;;;;;0.70;0.70;;;20.80;59.20;;;;;;5066560;28;20043;-67
2022/10/10 13:08:52;;;;;;;0.70;0.70;;;21.00;59.00;;;;;;5066467;28;20017;-66
2022/10/10 13:11:18;;;;;;;0.90;0.90;;;21.00;58.80;;;;;;5066375;28;20084;-67